createdAt,value
2018-06-27T00:01:05.561Z,16.16
2018-06-27T00:03:33.809Z,16.12
2018-06-27T00:06:02.097Z,16.00
2018-06-27T00:08:30.352Z,16.05
2018-06-27T00:10:58.601Z,16.06
2018-06-27T00:13:26.869Z,15.99
2018-06-27T00:15:55.137Z,15.90
2018-06-27T00:18:23.415Z,15.87
2018-06-27T00:20:51.752Z,15.89
2018-06-27T00:23:20.018Z,15.92
2018-06-27T00:25:48.273Z,15.87
2018-06-27T00:28:16.587Z,15.94
2018-06-27T00:30:44.857Z,15.90
2018-06-27T00:33:13.149Z,15.95
2018-06-27T00:35:41.494Z,15.93
2018-06-27T00:38:14.745Z,15.97
2018-06-27T00:40:43.207Z,15.88
2018-06-27T00:43:11.569Z,15.91
2018-06-27T00:45:39.863Z,15.86
2018-06-27T00:48:08.577Z,15.75
2018-06-27T00:50:37.033Z,15.72
2018-06-27T00:53:05.532Z,15.78
2018-06-27T00:55:33.785Z,15.80
2018-06-27T00:58:02.114Z,15.74
2018-06-27T01:00:30.464Z,15.67
2018-06-27T01:02:58.925Z,15.63
2018-06-27T01:05:27.429Z,15.60
2018-06-27T01:07:55.769Z,15.63
2018-06-27T01:10:24.070Z,15.60
2018-06-27T01:12:52.369Z,15.62
2018-06-27T01:15:20.637Z,15.62
2018-06-27T01:17:52.988Z,15.73
2018-06-27T01:20:21.265Z,15.67
2018-06-27T01:22:49.845Z,15.60
2018-06-27T01:25:18.354Z,15.59
2018-06-27T01:27:47.103Z,15.55
2018-06-27T01:30:15.411Z,15.48
2018-06-27T01:32:43.677Z,15.52
2018-06-27T01:35:12.161Z,15.55
2018-06-27T01:37:40.413Z,15.62
2018-06-27T01:40:08.689Z,15.60
2018-06-27T01:42:36.942Z,15.52
2018-06-27T01:45:05.265Z,15.42
2018-06-27T01:47:33.524Z,15.54
2018-06-27T01:50:02.181Z,15.54
2018-06-27T01:52:30.441Z,15.62
2018-06-27T01:54:58.699Z,15.60
2018-06-27T01:57:27.005Z,15.56
2018-06-27T01:59:55.260Z,15.56
2018-06-27T02:02:23.722Z,15.55
2018-06-27T02:04:51.962Z,15.36
2018-06-27T02:07:20.227Z,15.32
2018-06-27T02:09:48.465Z,15.18
2018-06-27T02:12:16.741Z,14.99
2018-06-27T02:14:44.986Z,14.93
2018-06-27T02:17:13.269Z,14.85
2018-06-27T02:19:41.541Z,14.89
2018-06-27T02:22:09.895Z,14.96
2018-06-27T02:24:38.148Z,15.08
2018-06-27T02:27:06.478Z,15.11
2018-06-27T02:29:34.736Z,15.11
2018-06-27T02:32:03.081Z,15.10
2018-06-27T02:34:31.350Z,15.14
2018-06-27T02:36:59.745Z,15.21
2018-06-27T02:39:28.009Z,15.17
2018-06-27T02:41:56.308Z,15.17
2018-06-27T02:44:24.569Z,15.17
2018-06-27T02:46:52.941Z,15.28
2018-06-27T02:49:21.229Z,15.24
2018-06-27T02:51:49.590Z,15.27
2018-06-27T02:54:17.995Z,15.24
2018-06-27T02:56:46.271Z,15.22
2018-06-27T02:59:14.585Z,15.27
2018-06-27T03:01:42.906Z,15.24
2018-06-27T03:04:11.246Z,15.23
2018-06-27T03:06:39.518Z,15.26
2018-06-27T03:09:09.526Z,15.14
2018-06-27T03:11:38.017Z,15.17
2018-06-27T03:14:06.473Z,15.11
2018-06-27T03:16:34.777Z,15.08
2018-06-27T03:19:03.089Z,15.22
2018-06-27T03:21:31.358Z,15.40
2018-06-27T03:23:59.745Z,15.36
2018-06-27T03:26:28.003Z,15.31
2018-06-27T03:28:56.284Z,15.39
2018-06-27T03:31:24.562Z,15.44
2018-06-27T03:33:52.857Z,15.41
2018-06-27T03:36:21.121Z,15.46
2018-06-27T03:38:49.373Z,15.44
2018-06-27T03:41:17.701Z,15.36
2018-06-27T03:43:45.965Z,15.34
2018-06-27T03:46:14.271Z,15.41
2018-06-27T03:48:42.537Z,15.46
2018-06-27T03:51:10.820Z,15.49
2018-06-27T03:53:40.309Z,15.37
2018-06-27T03:56:09.807Z,15.46
2018-06-27T03:58:38.920Z,15.53
2018-06-27T04:01:09.149Z,15.55
2018-06-27T04:03:37.914Z,15.65
2018-06-27T04:06:07.002Z,15.73
2018-06-27T04:08:35.296Z,15.83
2018-06-27T04:11:03.669Z,15.91
2018-06-27T04:13:32.075Z,16.06
2018-06-27T04:16:00.961Z,16.15
2018-06-27T04:18:29.261Z,16.30
2018-06-27T04:20:57.957Z,16.41
2018-06-27T04:23:26.241Z,16.48
2018-06-27T04:25:54.553Z,16.55
2018-06-27T04:28:22.828Z,16.43
2018-06-27T04:30:51.136Z,16.63
2018-06-27T04:33:19.593Z,16.54
2018-06-27T04:35:47.928Z,16.47
2018-06-27T04:38:16.873Z,16.54
2018-06-27T04:40:45.199Z,16.56
2018-06-27T04:43:13.557Z,16.76
2018-06-27T04:45:41.832Z,16.81
2018-06-27T04:48:10.497Z,16.92
2018-06-27T04:50:45.520Z,17.09
2018-06-27T04:53:14.895Z,17.12
2018-06-27T04:55:43.164Z,17.47
2018-06-27T04:58:11.469Z,17.69
2018-06-27T05:00:39.768Z,17.69
2018-06-27T05:03:08.077Z,17.90
2018-06-27T05:05:36.341Z,18.19
2018-06-27T05:08:04.645Z,17.88
2018-06-27T05:10:32.998Z,18.19
2018-06-27T05:13:01.537Z,18.40
2018-06-27T05:15:29.816Z,18.33
2018-06-27T05:17:58.274Z,18.34
2018-06-27T05:20:26.614Z,18.30
2018-06-27T05:22:54.936Z,18.54
2018-06-27T05:25:23.207Z,18.87
2018-06-27T05:27:51.521Z,18.96
2018-06-27T05:30:19.777Z,18.96
2018-06-27T05:32:48.101Z,19.06
2018-06-27T05:35:16.597Z,19.05
2018-06-27T05:37:44.875Z,19.02
2018-06-27T05:40:13.185Z,19.24
2018-06-27T05:42:41.454Z,19.34
2018-06-27T05:45:09.917Z,19.22
2018-06-27T05:47:38.229Z,19.32
2018-06-27T05:50:06.565Z,19.35
2018-06-27T05:52:34.862Z,19.51
2018-06-27T05:55:10.124Z,19.62
2018-06-27T05:57:40.218Z,19.67
2018-06-27T06:00:09.560Z,19.84
2018-06-27T06:02:37.990Z,19.92
2018-06-27T06:05:06.318Z,20.25
2018-06-27T06:07:34.657Z,20.25
2018-06-27T06:10:03.579Z,20.14
2018-06-27T06:12:31.880Z,20.21
2018-06-27T06:15:00.196Z,20.42
2018-06-27T06:17:28.501Z,20.33
2018-06-27T06:19:56.801Z,20.49
2018-06-27T06:22:25.092Z,20.55
2018-06-27T06:24:53.397Z,20.54
2018-06-27T06:27:21.697Z,20.63
2018-06-27T06:29:49.969Z,20.34
2018-06-27T06:32:18.383Z,20.30
2018-06-27T06:34:46.578Z,20.34
2018-06-27T06:37:14.870Z,20.77
2018-06-27T06:39:43.256Z,20.51
2018-06-27T06:42:11.674Z,20.65
2018-06-27T06:44:39.937Z,20.94
2018-06-27T06:47:08.294Z,21.29
2018-06-27T06:49:36.569Z,21.40
2018-06-27T06:52:05.228Z,21.43
2018-06-27T06:54:34.145Z,21.70
2018-06-27T06:57:02.429Z,21.82
2018-06-27T06:59:30.760Z,21.73
2018-06-27T07:01:59.078Z,22.01
2018-06-27T07:04:27.361Z,21.88
2018-06-27T07:06:55.726Z,21.99
2018-06-27T07:09:23.980Z,21.89
2018-06-27T07:11:52.293Z,22.05
2018-06-27T07:14:20.555Z,21.93
2018-06-27T07:16:49.008Z,21.85
2018-06-27T07:19:17.269Z,21.93
2018-06-27T07:21:45.636Z,22.25
2018-06-27T07:24:13.941Z,22.81
2018-06-27T07:26:42.319Z,23.15
2018-06-27T07:29:10.597Z,23.06
2018-06-27T07:31:38.954Z,23.15
2018-06-27T07:34:07.243Z,23.06
2018-06-27T07:36:35.638Z,23.27
2018-06-27T07:39:06.590Z,23.38
2018-06-27T07:41:34.847Z,23.48
2018-06-27T07:44:03.146Z,23.25
2018-06-27T07:46:31.421Z,23.24
2018-06-27T07:48:59.745Z,23.66
2018-06-27T07:51:28.014Z,23.39
2018-06-27T07:53:56.333Z,23.65
2018-06-27T07:56:24.638Z,23.59
2018-06-27T07:58:52.998Z,23.38
2018-06-27T08:01:21.277Z,23.65
2018-06-27T08:03:49.641Z,23.28
2018-06-27T08:06:17.898Z,22.88
2018-06-27T08:08:46.189Z,22.82
2018-06-27T08:11:14.585Z,22.81
2018-06-27T08:13:42.958Z,22.94
2018-06-27T08:16:11.250Z,23.21
2018-06-27T08:18:41.803Z,23.46
2018-06-27T08:21:10.389Z,23.53
2018-06-27T08:23:38.719Z,23.62
2018-06-27T08:26:07.230Z,23.21
2018-06-27T08:28:35.550Z,22.68
2018-06-27T08:31:03.853Z,22.63
2018-06-27T08:33:32.365Z,22.60
2018-06-27T08:36:00.666Z,22.76
2018-06-27T08:38:28.921Z,22.61
2018-06-27T08:40:57.270Z,23.08
2018-06-27T08:43:25.862Z,23.13
2018-06-27T08:45:54.137Z,22.97
2018-06-27T08:48:22.389Z,22.81
2018-06-27T08:50:50.661Z,23.20
2018-06-27T08:53:18.949Z,22.81
2018-06-27T08:55:47.258Z,23.20
2018-06-27T08:58:15.574Z,23.81
2018-06-27T09:00:43.862Z,24.46
2018-06-27T09:03:12.133Z,25.22
2018-06-27T09:05:40.415Z,25.69
2018-06-27T09:08:08.726Z,25.86
2018-06-27T09:10:36.989Z,26.15
2018-06-27T09:13:05.398Z,25.69
2018-06-27T09:15:33.673Z,25.76
2018-06-27T09:18:01.984Z,25.35
2018-06-27T09:20:30.286Z,25.28
2018-06-27T09:22:58.570Z,25.12
2018-06-27T09:25:26.846Z,24.53
2018-06-27T09:27:55.165Z,24.86
2018-06-27T09:30:23.427Z,24.45
2018-06-27T09:32:51.774Z,24.56
2018-06-27T09:35:20.055Z,24.85
2018-06-27T09:37:48.469Z,24.87
2018-06-27T09:40:16.746Z,25.00
2018-06-27T09:42:45.102Z,25.17
2018-06-27T09:45:13.416Z,24.34
2018-06-27T09:47:41.707Z,24.00
2018-06-27T09:50:09.977Z,23.84
2018-06-27T09:52:38.272Z,23.71
2018-06-27T09:55:06.581Z,23.72
2018-06-27T09:57:34.947Z,23.97
2018-06-27T10:00:03.286Z,24.23
2018-06-27T10:02:31.997Z,23.88
2018-06-27T10:05:00.362Z,24.08
2018-06-27T10:07:28.683Z,23.97
2018-06-27T10:09:56.937Z,24.51
2018-06-27T10:12:25.214Z,24.73
2018-06-27T10:14:53.514Z,24.50
2018-06-27T10:17:21.847Z,24.64
2018-06-27T10:19:50.141Z,24.85
2018-06-27T10:22:18.459Z,24.94
2018-06-27T10:24:46.733Z,24.76
2018-06-27T10:27:14.988Z,24.39
2018-06-27T10:29:43.305Z,24.68
2018-06-27T10:32:11.574Z,24.74
2018-06-27T10:34:39.854Z,24.24
2018-06-27T10:37:08.122Z,23.33
2018-06-27T10:39:36.473Z,23.69
2018-06-27T10:42:04.801Z,24.05
2018-06-27T10:44:33.259Z,23.82
2018-06-27T10:47:01.462Z,23.73
2018-06-27T10:49:29.752Z,24.23
2018-06-27T10:51:58.034Z,24.42
2018-06-27T10:54:26.356Z,24.25
2018-06-27T10:56:54.635Z,24.35
2018-06-27T10:59:22.951Z,24.90
2018-06-27T11:01:51.210Z,25.18
2018-06-27T11:04:19.485Z,25.28
2018-06-27T11:06:47.789Z,25.63
2018-06-27T11:09:16.069Z,25.56
2018-06-27T11:11:44.357Z,25.84
2018-06-27T11:14:12.878Z,26.18
2018-06-27T11:16:41.114Z,26.13
2018-06-27T11:19:09.374Z,25.75
2018-06-27T11:21:37.688Z,26.05
2018-06-27T11:24:06.329Z,25.93
2018-06-27T11:26:34.646Z,25.73
2018-06-27T11:29:02.917Z,26.04
2018-06-27T11:31:31.230Z,26.59
2018-06-27T11:33:59.527Z,26.41
2018-06-27T11:36:28.077Z,26.44
2018-06-27T11:38:56.352Z,26.56
2018-06-27T11:41:24.689Z,26.28
2018-06-27T11:43:52.954Z,26.93
2018-06-27T11:46:21.253Z,27.08
2018-06-27T11:48:49.514Z,27.34
2018-06-27T11:51:17.805Z,27.04
2018-06-27T11:53:46.118Z,26.60
2018-06-27T11:56:14.450Z,26.74
2018-06-27T11:58:42.748Z,26.42
2018-06-27T12:01:11.061Z,26.24
2018-06-27T12:03:39.357Z,26.52
2018-06-27T12:06:07.661Z,27.02
2018-06-27T12:08:35.974Z,26.53
2018-06-27T12:11:04.213Z,26.12
2018-06-27T12:13:32.517Z,26.56
2018-06-27T12:16:00.781Z,26.12
2018-06-27T12:18:29.054Z,26.55
2018-06-27T12:20:57.305Z,26.56
2018-06-27T12:23:25.581Z,26.24
2018-06-27T12:25:53.929Z,26.50
2018-06-27T12:28:22.219Z,26.48
2018-06-27T12:30:50.475Z,26.64
2018-06-27T12:33:18.749Z,26.47
2018-06-27T12:35:47.029Z,26.13
2018-06-27T12:38:15.349Z,26.32
2018-06-27T12:40:43.685Z,26.39
2018-06-27T12:43:12.072Z,26.27
2018-06-27T12:45:40.354Z,25.95
2018-06-27T12:48:08.607Z,25.78
2018-06-27T12:50:36.896Z,26.04
2018-06-27T12:53:05.484Z,26.17
2018-06-27T12:55:33.769Z,26.06
2018-06-27T12:58:02.159Z,26.36
2018-06-27T13:00:30.491Z,25.59
2018-06-27T13:02:58.741Z,26.01
2018-06-27T13:05:27.090Z,26.66
2018-06-27T13:07:55.365Z,26.46
2018-06-27T13:10:23.825Z,26.49
2018-06-27T13:12:52.077Z,26.04
2018-06-27T13:15:20.374Z,26.41
2018-06-27T13:17:48.637Z,26.38
2018-06-27T13:20:16.953Z,26.47
2018-06-27T13:22:45.210Z,26.55
2018-06-27T13:25:13.533Z,27.03
2018-06-27T13:27:41.854Z,26.47
2018-06-27T13:30:10.146Z,26.09
2018-06-27T13:32:38.422Z,26.19
2018-06-27T13:35:07.073Z,25.76
2018-06-27T13:37:35.373Z,25.69
2018-06-27T13:40:03.802Z,25.51
2018-06-27T13:42:32.081Z,25.57
2018-06-27T13:45:00.402Z,26.02
2018-06-27T13:47:28.705Z,26.25
2018-06-27T13:49:57.015Z,26.48
2018-06-27T13:52:25.421Z,28.59
2018-06-27T13:54:56.719Z,31.90
2018-06-27T13:57:26.145Z,32.37
2018-06-27T13:59:54.477Z,35.23
2018-06-27T14:02:22.797Z,34.84
2018-06-27T14:04:51.358Z,34.63
2018-06-27T14:07:19.786Z,35.13
2018-06-27T14:09:48.075Z,37.08
2018-06-27T14:12:16.393Z,41.42
2018-06-27T14:14:44.691Z,43.39
2018-06-27T14:17:13.006Z,43.77
2018-06-27T14:19:41.382Z,40.98
2018-06-27T14:22:10.047Z,40.22
2018-06-27T14:24:39.107Z,38.95
2018-06-27T14:27:07.429Z,40.83
2018-06-27T14:29:35.727Z,39.99
2018-06-27T14:32:04.014Z,40.92
2018-06-27T14:34:32.332Z,40.85
2018-06-27T14:37:00.618Z,39.79
2018-06-27T14:39:28.913Z,42.61
2018-06-27T14:41:57.170Z,40.14
2018-06-27T14:44:25.484Z,40.60
2018-06-27T14:46:53.787Z,40.43
2018-06-27T14:49:22.135Z,37.87
2018-06-27T14:51:50.449Z,39.88
2018-06-27T14:54:18.781Z,40.61
2018-06-27T14:56:49.805Z,41.15
2018-06-27T14:59:18.126Z,40.99
2018-06-27T15:01:46.450Z,42.28
2018-06-27T15:04:14.769Z,43.03
2018-06-27T15:06:43.069Z,43.29
2018-06-27T15:09:11.588Z,42.27
2018-06-27T15:11:39.869Z,41.98
2018-06-27T15:14:08.196Z,41.99
2018-06-27T15:16:36.494Z,41.25
2018-06-27T15:19:04.810Z,41.59
2018-06-27T15:21:33.108Z,41.06
2018-06-27T15:24:01.398Z,41.07
2018-06-27T15:26:29.686Z,41.49
2018-06-27T15:28:57.965Z,42.11
2018-06-27T15:31:26.307Z,41.88
2018-06-27T15:33:54.613Z,41.99
2018-06-27T15:36:22.926Z,41.17
2018-06-27T15:38:51.225Z,40.78
2018-06-27T15:41:19.562Z,41.43
2018-06-27T15:43:47.984Z,42.33
2018-06-27T15:46:16.375Z,41.39
2018-06-27T15:48:44.658Z,40.23
2018-06-27T15:51:12.985Z,40.25
2018-06-27T15:53:41.285Z,40.67
2018-06-27T15:56:09.615Z,40.75
2018-06-27T15:58:37.941Z,41.46
2018-06-27T16:01:06.469Z,41.08
2018-06-27T16:03:34.761Z,40.98
2018-06-27T16:06:04.109Z,39.47
2018-06-27T16:08:32.430Z,38.67
2018-06-27T16:11:00.765Z,41.30
2018-06-27T16:13:29.163Z,39.93
2018-06-27T16:15:57.457Z,39.51
2018-06-27T16:18:25.854Z,39.18
2018-06-27T16:20:54.122Z,40.59
2018-06-27T16:23:22.409Z,39.17
2018-06-27T16:25:50.729Z,38.83
2018-06-27T16:28:19.049Z,39.65
2018-06-27T16:30:47.318Z,41.21
2018-06-27T16:33:15.654Z,40.89
2018-06-27T16:35:43.944Z,41.17
2018-06-27T16:38:12.376Z,38.44
2018-06-27T16:40:40.933Z,38.91
2018-06-27T16:43:09.291Z,38.20
2018-06-27T16:45:37.550Z,38.70
2018-06-27T16:48:06.452Z,39.12
2018-06-27T16:50:34.979Z,39.52
2018-06-27T16:53:03.669Z,39.70
2018-06-27T16:55:32.023Z,39.32
2018-06-27T16:58:00.313Z,38.58
2018-06-27T17:00:28.973Z,38.29
2018-06-27T17:02:57.710Z,37.52
2018-06-27T17:05:26.666Z,37.26
2018-06-27T17:07:55.379Z,38.40
2018-06-27T17:10:23.661Z,37.08
2018-06-27T17:12:52.120Z,36.83
2018-06-27T17:15:20.393Z,36.32
2018-06-27T17:17:48.962Z,37.57
2018-06-27T17:20:17.606Z,37.10
2018-06-27T17:22:46.267Z,36.85
2018-06-27T17:25:14.658Z,36.02
2018-06-27T17:27:42.949Z,34.23
2018-06-27T17:30:11.399Z,35.40
2018-06-27T17:32:39.715Z,34.86
2018-06-27T17:35:09.060Z,34.40
2018-06-27T17:37:37.370Z,35.44
2018-06-27T17:40:06.187Z,35.68
2018-06-27T17:42:34.500Z,34.37
2018-06-27T17:45:02.815Z,34.73
2018-06-27T17:47:31.085Z,32.52
2018-06-27T17:49:59.430Z,30.06
2018-06-27T17:52:28.020Z,26.73
2018-06-27T17:54:56.645Z,25.60
2018-06-27T17:57:24.898Z,24.85
2018-06-27T17:59:53.469Z,24.36
2018-06-27T18:02:21.802Z,24.23
2018-06-27T18:04:50.261Z,23.81
2018-06-27T18:07:22.280Z,23.67
2018-06-27T18:09:50.752Z,23.39
2018-06-27T18:12:19.073Z,23.13
2018-06-27T18:14:47.349Z,22.89
2018-06-27T18:17:15.657Z,22.79
2018-06-27T18:19:43.972Z,22.59
2018-06-27T18:22:12.282Z,22.51
2018-06-27T18:24:40.541Z,22.16
2018-06-27T18:27:08.862Z,22.39
2018-06-27T18:29:37.119Z,22.66
2018-06-27T18:32:05.511Z,22.42
2018-06-27T18:34:33.753Z,22.25
2018-06-27T18:37:02.061Z,22.17
2018-06-27T18:39:30.310Z,22.16
2018-06-27T18:41:58.614Z,21.97
2018-06-27T18:44:26.874Z,21.92
2018-06-27T18:46:55.228Z,21.79
2018-06-27T18:49:23.504Z,21.70
2018-06-27T18:51:51.834Z,21.76
2018-06-27T18:54:20.139Z,21.61
2018-06-27T18:56:48.492Z,21.54
2018-06-27T18:59:16.902Z,21.46
2018-06-27T19:01:45.202Z,21.62
2018-06-27T19:04:13.516Z,21.34
2018-06-27T19:06:41.789Z,21.32
2018-06-27T19:09:11.866Z,21.30
2018-06-27T19:11:41.858Z,21.21
2018-06-27T19:14:10.161Z,20.91
2018-06-27T19:16:38.441Z,20.93
2018-06-27T19:19:06.908Z,20.91
2018-06-27T19:21:35.086Z,20.86
2018-06-27T19:24:03.442Z,20.82
2018-06-27T19:26:31.718Z,20.83
2018-06-27T19:29:00.056Z,20.90
2018-06-27T19:31:28.309Z,20.68
2018-06-27T19:33:56.649Z,20.68
2018-06-27T19:36:24.918Z,20.64
2018-06-27T19:38:53.285Z,20.62
2018-06-27T19:41:21.700Z,20.34
2018-06-27T19:43:49.902Z,20.26
2018-06-27T19:46:18.169Z,20.21
2018-06-27T19:48:46.429Z,20.16
2018-06-27T19:51:14.707Z,20.09
2018-06-27T19:53:43.009Z,19.98
2018-06-27T19:56:11.306Z,20.03
2018-06-27T19:58:39.581Z,19.89
2018-06-27T20:01:07.986Z,19.88
2018-06-27T20:03:36.277Z,19.80
2018-06-27T20:06:04.565Z,19.82
2018-06-27T20:08:32.861Z,19.65
2018-06-27T20:11:01.185Z,19.62
2018-06-27T20:13:29.442Z,19.50
2018-06-27T20:15:57.751Z,19.42
2018-06-27T20:18:26.015Z,19.39
2018-06-27T20:20:54.322Z,19.33
2018-06-27T20:23:22.866Z,19.34
2018-06-27T20:25:51.159Z,19.36
2018-06-27T20:28:19.406Z,19.32
2018-06-27T20:30:47.693Z,19.32
2018-06-27T20:33:16.031Z,19.22
2018-06-27T20:35:44.359Z,19.24
2018-06-27T20:38:12.673Z,19.18
2018-06-27T20:40:40.956Z,19.07
2018-06-27T20:43:09.374Z,19.14
2018-06-27T20:45:37.661Z,19.13
2018-06-27T20:48:05.999Z,19.20
2018-06-27T20:50:34.293Z,19.18
2018-06-27T20:53:03.065Z,19.12
2018-06-27T20:55:31.514Z,19.11
2018-06-27T20:58:00.013Z,19.19
2018-06-27T21:00:28.438Z,19.08
2018-06-27T21:02:56.758Z,18.91
2018-06-27T21:05:25.077Z,18.83
2018-06-27T21:07:53.413Z,18.78
2018-06-27T21:10:21.658Z,18.83
2018-06-27T21:12:50.007Z,18.85
2018-06-27T21:15:18.285Z,18.93
2018-06-27T21:17:46.590Z,18.89
2018-06-27T21:20:14.845Z,18.96
2018-06-27T21:22:43.253Z,18.80
2018-06-27T21:25:11.513Z,18.85
2018-06-27T21:27:39.974Z,18.80
2018-06-27T21:30:09.072Z,18.75
2018-06-27T21:32:37.539Z,18.66
2018-06-27T21:35:06.244Z,18.56
2018-06-27T21:37:34.502Z,18.47
2018-06-27T21:40:03.031Z,18.35
2018-06-27T21:42:31.309Z,18.65
2018-06-27T21:44:59.662Z,18.41
2018-06-27T21:47:27.945Z,18.16
2018-06-27T21:49:56.242Z,18.08
2018-06-27T21:52:24.560Z,18.02
2018-06-27T21:54:52.885Z,17.96
2018-06-27T21:57:21.173Z,17.85
2018-06-27T21:59:49.520Z,17.87
2018-06-27T22:02:17.869Z,17.84
2018-06-27T22:04:46.282Z,17.85
2018-06-27T22:07:14.577Z,17.90
2018-06-27T22:09:42.842Z,17.94
2018-06-27T22:12:11.417Z,17.78
2018-06-27T22:14:39.722Z,17.84
2018-06-27T22:17:08.019Z,17.84
2018-06-27T22:19:36.286Z,17.87
2018-06-27T22:22:04.597Z,17.87
2018-06-27T22:24:33.278Z,17.92
2018-06-27T22:27:01.654Z,17.84
2018-06-27T22:29:29.929Z,17.83
2018-06-27T22:32:01.401Z,17.85
2018-06-27T22:34:29.678Z,17.74
2018-06-27T22:37:04.521Z,17.67
2018-06-27T22:39:32.807Z,17.70
2018-06-27T22:42:01.306Z,17.63
2018-06-27T22:44:29.914Z,17.56
2018-06-27T22:46:58.377Z,17.51
2018-06-27T22:49:26.783Z,17.49
2018-06-27T22:51:55.110Z,17.43
2018-06-27T22:54:23.381Z,17.41
2018-06-27T22:56:51.706Z,17.39
2018-06-27T22:59:19.977Z,17.40
2018-06-27T23:01:48.335Z,17.46
2018-06-27T23:04:16.866Z,17.50
2018-06-27T23:06:45.209Z,17.40
2018-06-27T23:09:13.484Z,17.32
2018-06-27T23:11:41.766Z,17.33
2018-06-27T23:14:10.041Z,17.27
2018-06-27T23:16:38.385Z,17.24
2018-06-27T23:19:06.670Z,17.15
2018-06-27T23:21:34.986Z,17.27
2018-06-27T23:24:03.296Z,17.21
2018-06-27T23:26:31.615Z,17.22
2018-06-27T23:28:59.897Z,17.17
2018-06-27T23:31:28.183Z,17.14
2018-06-27T23:33:57.393Z,17.14
2018-06-27T23:36:26.906Z,17.10
2018-06-27T23:38:55.199Z,17.18
2018-06-27T23:41:24.029Z,17.20
2018-06-27T23:43:52.314Z,17.19
2018-06-27T23:46:20.613Z,17.18
2018-06-27T23:48:48.949Z,17.12
2018-06-27T23:51:17.221Z,16.99
2018-06-27T23:53:45.537Z,16.95
2018-06-27T23:56:13.813Z,16.88
2018-06-27T23:58:42.109Z,16.84
